sensor_id;sensor_type;location;lat;lon;timestamp;P1;durP1;ratioP1;P2;durP2;ratioP2
67278;SDS011;54193;53.746;10.058;2023-12-20T00:01:22;14.32;;;4.53;;
67278;SDS011;54193;53.746;10.058;2023-12-20T00:04:08;11.85;;;4.13;;
67278;SDS011;54193;53.746;10.058;2023-12-20T00:06:53;11.18;;;4.80;;
67278;SDS011;54193;53.746;10.058;2023-12-20T00:09:39;17.83;;;5.07;;
67278;SDS011;54193;53.746;10.058;2023-12-20T00:12:24;9.48;;;4.53;;
67278;SDS011;54193;53.746;10.058;2023-12-20T00:15:10;11.13;;;4.07;;
67278;SDS011;54193;53.746;10.058;2023-12-20T00:17:56;15.23;;;5.17;;
67278;SDS011;54193;53.746;10.058;2023-12-20T00:20:41;13.48;;;4.20;;
67278;SDS011;54193;53.746;10.058;2023-12-20T00:23:27;12.13;;;4.18;;
67278;SDS011;54193;53.746;10.058;2023-12-20T00:26:12;17.37;;;3.57;;
67278;SDS011;54193;53.746;10.058;2023-12-20T00:28:58;10.70;;;3.50;;
67278;SDS011;54193;53.746;10.058;2023-12-20T00:31:44;15.38;;;4.28;;
67278;SDS011;54193;53.746;10.058;2023-12-20T00:34:30;11.38;;;3.40;;
67278;SDS011;54193;53.746;10.058;2023-12-20T00:37:15;7.83;;;2.40;;
67278;SDS011;54193;53.746;10.058;2023-12-20T00:40:01;16.70;;;3.03;;
67278;SDS011;54193;53.746;10.058;2023-12-20T00:42:47;9.18;;;2.95;;
67278;SDS011;54193;53.746;10.058;2023-12-20T00:45:33;13.00;;;2.93;;
67278;SDS011;54193;53.746;10.058;2023-12-20T00:48:19;11.88;;;2.88;;
67278;SDS011;54193;53.746;10.058;2023-12-20T00:51:04;12.85;;;2.97;;
67278;SDS011;54193;53.746;10.058;2023-12-20T00:53:51;8.97;;;2.60;;
67278;SDS011;54193;53.746;10.058;2023-12-20T00:56:40;7.82;;;2.88;;
67278;SDS011;54193;53.746;10.058;2023-12-20T00:59:25;8.77;;;2.50;;
67278;SDS011;54193;53.746;10.058;2023-12-20T01:02:11;8.48;;;2.35;;
67278;SDS011;54193;53.746;10.058;2023-12-20T01:04:56;5.63;;;2.20;;
67278;SDS011;54193;53.746;10.058;2023-12-20T01:07:42;10.88;;;2.47;;
67278;SDS011;54193;53.746;10.058;2023-12-20T01:10:28;10.82;;;2.50;;
67278;SDS011;54193;53.746;10.058;2023-12-20T01:13:14;8.20;;;2.40;;
67278;SDS011;54193;53.746;10.058;2023-12-20T01:16:00;8.85;;;2.50;;
67278;SDS011;54193;53.746;10.058;2023-12-20T01:18:46;6.40;;;1.83;;
67278;SDS011;54193;53.746;10.058;2023-12-20T01:21:32;9.87;;;2.07;;
67278;SDS011;54193;53.746;10.058;2023-12-20T01:24:17;8.38;;;2.47;;
67278;SDS011;54193;53.746;10.058;2023-12-20T01:27:03;5.70;;;2.17;;
67278;SDS011;54193;53.746;10.058;2023-12-20T01:29:49;14.57;;;2.50;;
67278;SDS011;54193;53.746;10.058;2023-12-20T01:32:34;8.10;;;1.70;;
67278;SDS011;54193;53.746;10.058;2023-12-20T01:35:20;13.00;;;2.83;;
67278;SDS011;54193;53.746;10.058;2023-12-20T01:38:05;9.50;;;2.20;;
67278;SDS011;54193;53.746;10.058;2023-12-20T01:40:51;4.57;;;2.37;;
67278;SDS011;54193;53.746;10.058;2023-12-20T01:43:37;5.38;;;1.92;;
67278;SDS011;54193;53.746;10.058;2023-12-20T01:46:22;9.95;;;2.28;;
67278;SDS011;54193;53.746;10.058;2023-12-20T01:49:08;10.83;;;2.90;;
67278;SDS011;54193;53.746;10.058;2023-12-20T01:51:54;6.53;;;2.30;;
67278;SDS011;54193;53.746;10.058;2023-12-20T01:54:40;7.05;;;1.83;;
67278;SDS011;54193;53.746;10.058;2023-12-20T01:57:27;8.23;;;2.05;;
67278;SDS011;54193;53.746;10.058;2023-12-20T02:00:14;6.60;;;2.03;;
67278;SDS011;54193;53.746;10.058;2023-12-20T02:03:00;7.85;;;2.10;;
67278;SDS011;54193;53.746;10.058;2023-12-20T02:05:47;6.28;;;2.05;;
67278;SDS011;54193;53.746;10.058;2023-12-20T02:08:33;9.77;;;2.17;;
67278;SDS011;54193;53.746;10.058;2023-12-20T02:11:19;6.60;;;1.65;;
67278;SDS011;54193;53.746;10.058;2023-12-20T02:14:06;5.13;;;1.75;;
67278;SDS011;54193;53.746;10.058;2023-12-20T02:16:52;10.90;;;2.60;;
67278;SDS011;54193;53.746;10.058;2023-12-20T02:19:37;8.52;;;2.30;;
67278;SDS011;54193;53.746;10.058;2023-12-20T02:22:23;6.85;;;2.00;;
67278;SDS011;54193;53.746;10.058;2023-12-20T02:25:09;8.55;;;1.73;;
67278;SDS011;54193;53.746;10.058;2023-12-20T02:27:54;9.47;;;2.30;;
67278;SDS011;54193;53.746;10.058;2023-12-20T02:30:40;13.13;;;2.70;;
67278;SDS011;54193;53.746;10.058;2023-12-20T02:33:26;11.68;;;2.88;;
67278;SDS011;54193;53.746;10.058;2023-12-20T02:36:12;10.83;;;2.13;;
67278;SDS011;54193;53.746;10.058;2023-12-20T02:38:57;12.23;;;2.45;;
67278;SDS011;54193;53.746;10.058;2023-12-20T02:41:43;8.05;;;2.78;;
67278;SDS011;54193;53.746;10.058;2023-12-20T02:44:28;14.17;;;2.80;;
67278;SDS011;54193;53.746;10.058;2023-12-20T02:47:14;10.52;;;2.47;;
67278;SDS011;54193;53.746;10.058;2023-12-20T02:50:00;10.25;;;2.30;;
67278;SDS011;54193;53.746;10.058;2023-12-20T02:52:45;9.52;;;2.30;;
67278;SDS011;54193;53.746;10.058;2023-12-20T02:55:31;2.70;;;1.30;;
67278;SDS011;54193;53.746;10.058;2023-12-20T02:58:17;8.07;;;1.90;;
67278;SDS011;54193;53.746;10.058;2023-12-20T03:01:03;8.63;;;1.75;;
67278;SDS011;54193;53.746;10.058;2023-12-20T03:03:48;9.93;;;1.80;;
67278;SDS011;54193;53.746;10.058;2023-12-20T03:06:34;4.85;;;1.27;;
67278;SDS011;54193;53.746;10.058;2023-12-20T03:09:20;6.90;;;1.45;;
67278;SDS011;54193;53.746;10.058;2023-12-20T03:12:05;5.17;;;1.50;;
67278;SDS011;54193;53.746;10.058;2023-12-20T03:14:51;4.63;;;1.35;;
67278;SDS011;54193;53.746;10.058;2023-12-20T03:17:37;8.02;;;1.90;;
67278;SDS011;54193;53.746;10.058;2023-12-20T03:20:22;11.23;;;1.85;;
67278;SDS011;54193;53.746;10.058;2023-12-20T03:23:08;6.53;;;1.57;;
67278;SDS011;54193;53.746;10.058;2023-12-20T03:25:54;8.93;;;2.25;;
67278;SDS011;54193;53.746;10.058;2023-12-20T03:28:39;11.13;;;2.80;;
67278;SDS011;54193;53.746;10.058;2023-12-20T03:31:25;12.87;;;2.30;;
67278;SDS011;54193;53.746;10.058;2023-12-20T03:34:11;5.72;;;1.95;;
67278;SDS011;54193;53.746;10.058;2023-12-20T03:36:57;8.02;;;1.40;;
67278;SDS011;54193;53.746;10.058;2023-12-20T03:39:42;7.93;;;1.77;;
67278;SDS011;54193;53.746;10.058;2023-12-20T03:42:28;9.20;;;1.70;;
67278;SDS011;54193;53.746;10.058;2023-12-20T03:45:14;7.32;;;1.65;;
67278;SDS011;54193;53.746;10.058;2023-12-20T03:47:59;9.68;;;2.10;;
67278;SDS011;54193;53.746;10.058;2023-12-20T03:50:45;8.53;;;1.40;;
67278;SDS011;54193;53.746;10.058;2023-12-20T03:53:31;6.30;;;1.63;;
67278;SDS011;54193;53.746;10.058;2023-12-20T03:56:16;9.52;;;1.10;;
67278;SDS011;54193;53.746;10.058;2023-12-20T03:59:02;4.40;;;1.20;;
67278;SDS011;54193;53.746;10.058;2023-12-20T04:01:47;9.50;;;1.30;;
67278;SDS011;54193;53.746;10.058;2023-12-20T04:04:33;6.85;;;1.50;;
67278;SDS011;54193;53.746;10.058;2023-12-20T04:07:18;7.37;;;1.40;;
67278;SDS011;54193;53.746;10.058;2023-12-20T04:10:05;9.32;;;1.90;;
67278;SDS011;54193;53.746;10.058;2023-12-20T04:12:51;5.65;;;1.25;;
67278;SDS011;54193;53.746;10.058;2023-12-20T04:15:36;12.50;;;1.88;;
67278;SDS011;54193;53.746;10.058;2023-12-20T04:18:22;6.10;;;1.20;;
67278;SDS011;54193;53.746;10.058;2023-12-20T04:21:08;6.53;;;1.30;;
67278;SDS011;54193;53.746;10.058;2023-12-20T04:23:53;1.92;;;0.63;;
67278;SDS011;54193;53.746;10.058;2023-12-20T04:26:39;5.43;;;1.03;;
67278;SDS011;54193;53.746;10.058;2023-12-20T04:29:24;7.10;;;1.33;;
67278;SDS011;54193;53.746;10.058;2023-12-20T04:32:10;7.88;;;1.10;;
67278;SDS011;54193;53.746;10.058;2023-12-20T04:34:56;7.70;;;1.83;;
67278;SDS011;54193;53.746;10.058;2023-12-20T04:37:41;6.65;;;1.60;;
67278;SDS011;54193;53.746;10.058;2023-12-20T04:40:27;9.98;;;1.98;;
67278;SDS011;54193;53.746;10.058;2023-12-20T04:43:12;5.38;;;1.08;;
67278;SDS011;54193;53.746;10.058;2023-12-20T04:45:58;6.63;;;1.40;;
67278;SDS011;54193;53.746;10.058;2023-12-20T04:48:43;11.50;;;2.38;;
67278;SDS011;54193;53.746;10.058;2023-12-20T04:51:29;3.10;;;0.77;;
67278;SDS011;54193;53.746;10.058;2023-12-20T04:54:15;8.90;;;1.37;;
67278;SDS011;54193;53.746;10.058;2023-12-20T04:57:00;6.20;;;1.17;;
67278;SDS011;54193;53.746;10.058;2023-12-20T04:59:46;7.05;;;1.40;;
67278;SDS011;54193;53.746;10.058;2023-12-20T05:02:31;6.07;;;1.47;;
67278;SDS011;54193;53.746;10.058;2023-12-20T05:05:17;7.18;;;1.70;;
67278;SDS011;54193;53.746;10.058;2023-12-20T05:08:03;5.68;;;1.35;;
67278;SDS011;54193;53.746;10.058;2023-12-20T05:10:49;6.95;;;1.75;;
67278;SDS011;54193;53.746;10.058;2023-12-20T05:13:35;6.93;;;1.60;;
67278;SDS011;54193;53.746;10.058;2023-12-20T05:16:20;12.27;;;2.58;;
67278;SDS011;54193;53.746;10.058;2023-12-20T05:19:06;13.20;;;1.80;;
67278;SDS011;54193;53.746;10.058;2023-12-20T05:21:52;7.97;;;1.47;;
67278;SDS011;54193;53.746;10.058;2023-12-20T05:24:37;7.47;;;1.33;;
67278;SDS011;54193;53.746;10.058;2023-12-20T05:27:23;11.55;;;1.83;;
67278;SDS011;54193;53.746;10.058;2023-12-20T05:30:08;11.77;;;1.63;;
67278;SDS011;54193;53.746;10.058;2023-12-20T05:32:54;11.73;;;1.80;;
67278;SDS011;54193;53.746;10.058;2023-12-20T05:35:40;6.05;;;1.30;;
67278;SDS011;54193;53.746;10.058;2023-12-20T05:38:26;11.05;;;1.60;;
67278;SDS011;54193;53.746;10.058;2023-12-20T05:41:11;13.77;;;2.17;;
67278;SDS011;54193;53.746;10.058;2023-12-20T05:43:57;9.95;;;2.20;;
67278;SDS011;54193;53.746;10.058;2023-12-20T05:46:45;10.02;;;1.90;;
67278;SDS011;54193;53.746;10.058;2023-12-20T05:49:31;8.93;;;1.53;;
67278;SDS011;54193;53.746;10.058;2023-12-20T05:52:18;8.10;;;1.75;;
67278;SDS011;54193;53.746;10.058;2023-12-20T05:55:03;10.23;;;1.90;;
67278;SDS011;54193;53.746;10.058;2023-12-20T05:57:49;4.67;;;1.50;;
67278;SDS011;54193;53.746;10.058;2023-12-20T06:00:35;9.90;;;2.28;;
67278;SDS011;54193;53.746;10.058;2023-12-20T06:03:20;8.95;;;2.00;;
67278;SDS011;54193;53.746;10.058;2023-12-20T06:06:06;8.82;;;1.90;;
67278;SDS011;54193;53.746;10.058;2023-12-20T06:08:52;8.83;;;2.13;;
67278;SDS011;54193;53.746;10.058;2023-12-20T06:11:38;11.60;;;2.75;;
67278;SDS011;54193;53.746;10.058;2023-12-20T06:14:24;8.30;;;2.05;;
67278;SDS011;54193;53.746;10.058;2023-12-20T06:17:09;11.63;;;2.03;;
67278;SDS011;54193;53.746;10.058;2023-12-20T06:19:55;8.57;;;2.15;;
67278;SDS011;54193;53.746;10.058;2023-12-20T06:22:41;9.65;;;2.45;;
67278;SDS011;54193;53.746;10.058;2023-12-20T06:25:26;6.10;;;1.57;;
67278;SDS011;54193;53.746;10.058;2023-12-20T06:28:12;10.38;;;2.72;;
67278;SDS011;54193;53.746;10.058;2023-12-20T06:31:00;17.63;;;3.40;;
67278;SDS011;54193;53.746;10.058;2023-12-20T06:33:46;5.63;;;1.65;;
67278;SDS011;54193;53.746;10.058;2023-12-20T06:36:31;10.17;;;2.80;;
67278;SDS011;54193;53.746;10.058;2023-12-20T06:39:17;11.70;;;2.30;;
67278;SDS011;54193;53.746;10.058;2023-12-20T06:42:02;11.65;;;2.35;;
67278;SDS011;54193;53.746;10.058;2023-12-20T06:44:48;10.93;;;2.03;;
67278;SDS011;54193;53.746;10.058;2023-12-20T06:47:34;16.60;;;3.08;;
67278;SDS011;54193;53.746;10.058;2023-12-20T06:50:20;7.80;;;1.85;;
67278;SDS011;54193;53.746;10.058;2023-12-20T06:53:06;9.70;;;2.30;;
67278;SDS011;54193;53.746;10.058;2023-12-20T06:55:52;11.02;;;2.17;;
67278;SDS011;54193;53.746;10.058;2023-12-20T06:58:37;42.90;;;3.40;;
67278;SDS011;54193;53.746;10.058;2023-12-20T07:01:23;16.42;;;2.30;;
67278;SDS011;54193;53.746;10.058;2023-12-20T07:04:10;10.90;;;2.50;;
67278;SDS011;54193;53.746;10.058;2023-12-20T07:06:56;12.20;;;2.63;;
67278;SDS011;54193;53.746;10.058;2023-12-20T07:09:42;8.23;;;1.92;;
67278;SDS011;54193;53.746;10.058;2023-12-20T07:12:28;11.67;;;2.43;;
67278;SDS011;54193;53.746;10.058;2023-12-20T07:15:13;9.60;;;2.13;;
67278;SDS011;54193;53.746;10.058;2023-12-20T07:17:59;4.57;;;1.42;;
67278;SDS011;54193;53.746;10.058;2023-12-20T07:20:46;5.03;;;1.03;;
67278;SDS011;54193;53.746;10.058;2023-12-20T07:23:31;15.10;;;2.40;;
67278;SDS011;54193;53.746;10.058;2023-12-20T07:26:17;12.30;;;2.38;;
67278;SDS011;54193;53.746;10.058;2023-12-20T07:29:03;9.63;;;1.65;;
67278;SDS011;54193;53.746;10.058;2023-12-20T07:31:49;8.93;;;1.67;;
67278;SDS011;54193;53.746;10.058;2023-12-20T07:34:37;9.02;;;1.60;;
67278;SDS011;54193;53.746;10.058;2023-12-20T07:37:22;6.30;;;1.48;;
67278;SDS011;54193;53.746;10.058;2023-12-20T07:40:08;11.27;;;2.03;;
67278;SDS011;54193;53.746;10.058;2023-12-20T07:42:54;7.30;;;1.92;;
67278;SDS011;54193;53.746;10.058;2023-12-20T07:45:40;10.60;;;1.92;;
67278;SDS011;54193;53.746;10.058;2023-12-20T07:48:25;10.50;;;1.33;;
67278;SDS011;54193;53.746;10.058;2023-12-20T07:51:11;2.55;;;0.98;;
67278;SDS011;54193;53.746;10.058;2023-12-20T07:53:56;15.82;;;2.15;;
67278;SDS011;54193;53.746;10.058;2023-12-20T07:56:42;14.07;;;2.63;;
67278;SDS011;54193;53.746;10.058;2023-12-20T07:59:28;10.17;;;1.93;;
67278;SDS011;54193;53.746;10.058;2023-12-20T08:02:13;16.13;;;2.58;;
67278;SDS011;54193;53.746;10.058;2023-12-20T08:04:59;15.07;;;2.50;;
67278;SDS011;54193;53.746;10.058;2023-12-20T08:07:44;11.13;;;2.00;;
67278;SDS011;54193;53.746;10.058;2023-12-20T08:10:30;9.70;;;2.08;;
67278;SDS011;54193;53.746;10.058;2023-12-20T08:13:16;9.57;;;2.25;;
67278;SDS011;54193;53.746;10.058;2023-12-20T08:16:02;13.23;;;2.23;;
67278;SDS011;54193;53.746;10.058;2023-12-20T08:18:50;10.38;;;1.95;;
67278;SDS011;54193;53.746;10.058;2023-12-20T08:21:36;9.50;;;1.55;;
67278;SDS011;54193;53.746;10.058;2023-12-20T08:24:21;5.67;;;1.37;;
67278;SDS011;54193;53.746;10.058;2023-12-20T08:27:07;12.15;;;2.40;;
67278;SDS011;54193;53.746;10.058;2023-12-20T08:29:54;11.45;;;2.45;;
67278;SDS011;54193;53.746;10.058;2023-12-20T08:32:40;5.07;;;1.30;;
67278;SDS011;54193;53.746;10.058;2023-12-20T08:35:26;10.88;;;1.45;;
67278;SDS011;54193;53.746;10.058;2023-12-20T08:38:11;7.97;;;1.70;;
67278;SDS011;54193;53.746;10.058;2023-12-20T08:40:57;5.03;;;1.33;;
67278;SDS011;54193;53.746;10.058;2023-12-20T08:43:43;10.67;;;2.03;;
67278;SDS011;54193;53.746;10.058;2023-12-20T08:46:28;6.93;;;1.88;;
67278;SDS011;54193;53.746;10.058;2023-12-20T08:49:14;4.45;;;1.30;;
67278;SDS011;54193;53.746;10.058;2023-12-20T08:52:00;9.83;;;2.10;;
67278;SDS011;54193;53.746;10.058;2023-12-20T08:54:45;11.75;;;2.45;;
67278;SDS011;54193;53.746;10.058;2023-12-20T08:57:31;9.30;;;1.50;;
67278;SDS011;54193;53.746;10.058;2023-12-20T09:00:18;10.93;;;2.13;;
67278;SDS011;54193;53.746;10.058;2023-12-20T09:03:06;12.23;;;1.83;;
67278;SDS011;54193;53.746;10.058;2023-12-20T09:05:51;12.85;;;2.60;;
67278;SDS011;54193;53.746;10.058;2023-12-20T09:08:37;9.75;;;2.40;;
67278;SDS011;54193;53.746;10.058;2023-12-20T09:11:23;9.50;;;2.50;;
67278;SDS011;54193;53.746;10.058;2023-12-20T09:14:08;12.75;;;2.53;;
67278;SDS011;54193;53.746;10.058;2023-12-20T09:16:54;8.77;;;2.28;;
67278;SDS011;54193;53.746;10.058;2023-12-20T09:19:41;5.40;;;1.97;;
67278;SDS011;54193;53.746;10.058;2023-12-20T09:22:29;8.43;;;2.40;;
67278;SDS011;54193;53.746;10.058;2023-12-20T09:25:14;6.10;;;2.30;;
67278;SDS011;54193;53.746;10.058;2023-12-20T09:28:01;3.87;;;1.33;;
67278;SDS011;54193;53.746;10.058;2023-12-20T09:30:46;4.47;;;1.30;;
67278;SDS011;54193;53.746;10.058;2023-12-20T09:33:33;5.50;;;1.40;;
67278;SDS011;54193;53.746;10.058;2023-12-20T09:36:19;2.88;;;1.10;;
67278;SDS011;54193;53.746;10.058;2023-12-20T09:39:04;3.50;;;1.10;;
67278;SDS011;54193;53.746;10.058;2023-12-20T09:41:56;3.42;;;1.08;;
67278;SDS011;54193;53.746;10.058;2023-12-20T09:44:46;3.50;;;0.95;;
67278;SDS011;54193;53.746;10.058;2023-12-20T09:47:32;2.63;;;1.00;;
67278;SDS011;54193;53.746;10.058;2023-12-20T09:50:19;3.72;;;1.10;;
67278;SDS011;54193;53.746;10.058;2023-12-20T09:53:06;3.30;;;0.90;;
67278;SDS011;54193;53.746;10.058;2023-12-20T09:55:55;1.50;;;0.60;;
67278;SDS011;54193;53.746;10.058;2023-12-20T09:58:44;2.63;;;0.77;;
67278;SDS011;54193;53.746;10.058;2023-12-20T10:01:30;4.05;;;0.80;;
67278;SDS011;54193;53.746;10.058;2023-12-20T10:04:16;3.03;;;0.83;;
67278;SDS011;54193;53.746;10.058;2023-12-20T10:07:02;4.55;;;0.70;;
67278;SDS011;54193;53.746;10.058;2023-12-20T10:09:51;3.25;;;0.65;;
67278;SDS011;54193;53.746;10.058;2023-12-20T10:12:40;4.18;;;0.90;;
67278;SDS011;54193;53.746;10.058;2023-12-20T10:15:26;2.00;;;0.60;;
67278;SDS011;54193;53.746;10.058;2023-12-20T10:18:12;2.55;;;0.70;;
67278;SDS011;54193;53.746;10.058;2023-12-20T10:20:58;2.00;;;0.80;;
67278;SDS011;54193;53.746;10.058;2023-12-20T10:23:43;3.57;;;0.63;;
67278;SDS011;54193;53.746;10.058;2023-12-20T10:26:29;4.53;;;0.85;;
67278;SDS011;54193;53.746;10.058;2023-12-20T10:29:15;2.38;;;0.60;;
67278;SDS011;54193;53.746;10.058;2023-12-20T10:35:10;1.58;;;0.52;;
67278;SDS011;54193;53.746;10.058;2023-12-20T10:37:56;2.85;;;0.60;;
67278;SDS011;54193;53.746;10.058;2023-12-20T10:40:42;5.10;;;1.10;;
67278;SDS011;54193;53.746;10.058;2023-12-20T10:43:28;5.50;;;0.93;;
67278;SDS011;54193;53.746;10.058;2023-12-20T10:46:15;5.32;;;1.13;;
67278;SDS011;54193;53.746;10.058;2023-12-20T10:49:04;10.43;;;1.30;;
67278;SDS011;54193;53.746;10.058;2023-12-20T10:51:50;6.03;;;1.10;;
67278;SDS011;54193;53.746;10.058;2023-12-20T10:54:39;6.82;;;1.10;;
67278;SDS011;54193;53.746;10.058;2023-12-20T10:57:26;4.93;;;1.05;;
67278;SDS011;54193;53.746;10.058;2023-12-20T11:00:12;7.30;;;1.10;;
67278;SDS011;54193;53.746;10.058;2023-12-20T11:03:00;9.02;;;1.13;;
67278;SDS011;54193;53.746;10.058;2023-12-20T11:05:49;5.70;;;1.30;;
67278;SDS011;54193;53.746;10.058;2023-12-20T11:09:22;3.47;;;1.00;;
67278;SDS011;54193;53.746;10.058;2023-12-20T11:12:06;6.27;;;0.90;;
67278;SDS011;54193;53.746;10.058;2023-12-20T11:14:59;2.95;;;0.63;;
67278;SDS011;54193;53.746;10.058;2023-12-20T11:17:55;2.78;;;0.68;;
67278;SDS011;54193;53.746;10.058;2023-12-20T11:20:42;4.03;;;0.93;;
67278;SDS011;54193;53.746;10.058;2023-12-20T11:23:27;6.30;;;1.02;;
67278;SDS011;54193;53.746;10.058;2023-12-20T11:26:22;4.25;;;1.08;;
67278;SDS011;54193;53.746;10.058;2023-12-20T11:32:38;5.20;;;1.30;;
67278;SDS011;54193;53.746;10.058;2023-12-20T11:35:25;4.47;;;1.30;;
67278;SDS011;54193;53.746;10.058;2023-12-20T11:38:11;8.73;;;1.45;;
67278;SDS011;54193;53.746;10.058;2023-12-20T11:40:59;11.30;;;1.40;;
67278;SDS011;54193;53.746;10.058;2023-12-20T11:43:48;6.78;;;1.45;;
67278;SDS011;54193;53.746;10.058;2023-12-20T11:46:38;8.32;;;1.23;;
67278;SDS011;54193;53.746;10.058;2023-12-20T11:49:24;8.40;;;1.50;;
67278;SDS011;54193;53.746;10.058;2023-12-20T11:52:11;10.48;;;1.65;;
67278;SDS011;54193;53.746;10.058;2023-12-20T11:54:58;7.50;;;1.40;;
67278;SDS011;54193;53.746;10.058;2023-12-20T11:57:43;8.33;;;1.40;;
67278;SDS011;54193;53.746;10.058;2023-12-20T12:00:30;11.98;;;1.63;;
67278;SDS011;54193;53.746;10.058;2023-12-20T12:03:15;11.48;;;1.90;;
67278;SDS011;54193;53.746;10.058;2023-12-20T12:06:01;6.15;;;0.95;;
67278;SDS011;54193;53.746;10.058;2023-12-20T12:08:49;6.33;;;0.90;;
67278;SDS011;54193;53.746;10.058;2023-12-20T12:11:37;7.78;;;1.40;;
67278;SDS011;54193;53.746;10.058;2023-12-20T12:14:22;6.03;;;1.23;;
67278;SDS011;54193;53.746;10.058;2023-12-20T12:17:12;11.73;;;1.57;;
67278;SDS011;54193;53.746;10.058;2023-12-20T12:20:02;7.25;;;1.30;;
67278;SDS011;54193;53.746;10.058;2023-12-20T12:22:59;13.48;;;1.58;;
67278;SDS011;54193;53.746;10.058;2023-12-20T12:25:51;8.83;;;1.80;;
67278;SDS011;54193;53.746;10.058;2023-12-20T12:28:39;10.35;;;1.90;;
67278;SDS011;54193;53.746;10.058;2023-12-20T12:31:25;11.70;;;1.85;;
67278;SDS011;54193;53.746;10.058;2023-12-20T12:34:12;10.50;;;1.35;;
67278;SDS011;54193;53.746;10.058;2023-12-20T12:36:57;12.40;;;1.90;;
67278;SDS011;54193;53.746;10.058;2023-12-20T12:39:43;12.45;;;1.77;;
67278;SDS011;54193;53.746;10.058;2023-12-20T12:42:29;8.60;;;1.48;;
67278;SDS011;54193;53.746;10.058;2023-12-20T12:45:14;14.80;;;1.70;;
67278;SDS011;54193;53.746;10.058;2023-12-20T12:48:00;16.40;;;2.33;;
67278;SDS011;54193;53.746;10.058;2023-12-20T12:50:46;18.23;;;2.38;;
67278;SDS011;54193;53.746;10.058;2023-12-20T12:53:32;16.43;;;2.03;;
67278;SDS011;54193;53.746;10.058;2023-12-20T12:56:17;9.43;;;1.80;;
67278;SDS011;54193;53.746;10.058;2023-12-20T12:59:03;15.15;;;2.88;;
67278;SDS011;54193;53.746;10.058;2023-12-20T13:01:49;18.98;;;2.85;;
67278;SDS011;54193;53.746;10.058;2023-12-20T13:04:35;13.77;;;2.70;;
67278;SDS011;54193;53.746;10.058;2023-12-20T13:07:20;9.95;;;1.67;;
67278;SDS011;54193;53.746;10.058;2023-12-20T13:10:06;10.88;;;1.98;;
67278;SDS011;54193;53.746;10.058;2023-12-20T13:12:52;10.20;;;1.83;;
67278;SDS011;54193;53.746;10.058;2023-12-20T13:15:37;10.98;;;2.20;;
67278;SDS011;54193;53.746;10.058;2023-12-20T13:18:23;12.15;;;2.08;;
67278;SDS011;54193;53.746;10.058;2023-12-20T13:21:10;11.60;;;2.07;;
67278;SDS011;54193;53.746;10.058;2023-12-20T13:23:56;8.00;;;1.40;;
67278;SDS011;54193;53.746;10.058;2023-12-20T13:26:42;13.52;;;2.35;;
67278;SDS011;54193;53.746;10.058;2023-12-20T13:29:27;11.95;;;2.17;;
67278;SDS011;54193;53.746;10.058;2023-12-20T13:32:13;9.77;;;1.63;;
67278;SDS011;54193;53.746;10.058;2023-12-20T13:34:59;9.55;;;2.05;;
67278;SDS011;54193;53.746;10.058;2023-12-20T13:37:44;14.60;;;2.50;;
67278;SDS011;54193;53.746;10.058;2023-12-20T13:40:31;10.50;;;2.33;;
67278;SDS011;54193;53.746;10.058;2023-12-20T13:43:17;9.38;;;2.05;;
67278;SDS011;54193;53.746;10.058;2023-12-20T13:46:06;13.40;;;2.10;;
67278;SDS011;54193;53.746;10.058;2023-12-20T13:48:52;9.33;;;1.70;;
67278;SDS011;54193;53.746;10.058;2023-12-20T13:51:37;11.32;;;1.60;;
67278;SDS011;54193;53.746;10.058;2023-12-20T13:54:24;16.65;;;2.90;;
67278;SDS011;54193;53.746;10.058;2023-12-20T13:57:09;11.90;;;2.55;;
67278;SDS011;54193;53.746;10.058;2023-12-20T13:59:55;10.97;;;1.57;;
67278;SDS011;54193;53.746;10.058;2023-12-20T14:02:43;12.77;;;2.03;;
67278;SDS011;54193;53.746;10.058;2023-12-20T14:05:28;13.40;;;2.67;;
67278;SDS011;54193;53.746;10.058;2023-12-20T14:08:14;13.27;;;2.27;;
67278;SDS011;54193;53.746;10.058;2023-12-20T14:10:59;16.50;;;3.55;;
67278;SDS011;54193;53.746;10.058;2023-12-20T14:13:46;15.18;;;3.55;;
67278;SDS011;54193;53.746;10.058;2023-12-20T14:16:34;14.20;;;2.93;;
67278;SDS011;54193;53.746;10.058;2023-12-20T14:19:20;12.80;;;2.22;;
67278;SDS011;54193;53.746;10.058;2023-12-20T14:22:06;9.30;;;2.05;;
67278;SDS011;54193;53.746;10.058;2023-12-20T14:24:52;12.27;;;2.35;;
67278;SDS011;54193;53.746;10.058;2023-12-20T14:27:38;15.60;;;2.47;;
67278;SDS011;54193;53.746;10.058;2023-12-20T14:30:24;11.70;;;2.40;;
67278;SDS011;54193;53.746;10.058;2023-12-20T14:33:09;12.85;;;2.70;;
67278;SDS011;54193;53.746;10.058;2023-12-20T14:35:55;11.90;;;2.27;;
67278;SDS011;54193;53.746;10.058;2023-12-20T14:38:41;8.95;;;2.08;;
67278;SDS011;54193;53.746;10.058;2023-12-20T14:41:26;10.18;;;2.20;;
67278;SDS011;54193;53.746;10.058;2023-12-20T14:44:12;11.47;;;2.90;;
67278;SDS011;54193;53.746;10.058;2023-12-20T14:46:58;14.73;;;2.97;;
67278;SDS011;54193;53.746;10.058;2023-12-20T14:49:43;13.95;;;2.80;;
67278;SDS011;54193;53.746;10.058;2023-12-20T14:52:29;14.55;;;2.70;;
67278;SDS011;54193;53.746;10.058;2023-12-20T14:55:15;10.67;;;2.03;;
67278;SDS011;54193;53.746;10.058;2023-12-20T14:58:02;15.13;;;2.60;;
67278;SDS011;54193;53.746;10.058;2023-12-20T15:00:48;13.90;;;2.30;;
67278;SDS011;54193;53.746;10.058;2023-12-20T15:03:33;11.87;;;2.73;;
67278;SDS011;54193;53.746;10.058;2023-12-20T15:06:19;10.02;;;2.67;;
67278;SDS011;54193;53.746;10.058;2023-12-20T15:09:05;8.90;;;2.92;;
67278;SDS011;54193;53.746;10.058;2023-12-20T15:11:51;12.10;;;1.93;;
67278;SDS011;54193;53.746;10.058;2023-12-20T15:14:37;11.57;;;2.83;;
67278;SDS011;54193;53.746;10.058;2023-12-20T15:17:23;11.13;;;3.08;;
67278;SDS011;54193;53.746;10.058;2023-12-20T15:20:11;13.25;;;3.58;;
67278;SDS011;54193;53.746;10.058;2023-12-20T15:22:56;12.47;;;3.27;;
67278;SDS011;54193;53.746;10.058;2023-12-20T15:25:49;9.43;;;2.13;;
67278;SDS011;54193;53.746;10.058;2023-12-20T15:28:35;11.10;;;2.30;;
67278;SDS011;54193;53.746;10.058;2023-12-20T15:31:21;11.60;;;2.40;;
67278;SDS011;54193;53.746;10.058;2023-12-20T15:34:11;7.43;;;1.88;;
67278;SDS011;54193;53.746;10.058;2023-12-20T15:36:58;9.90;;;2.25;;
67278;SDS011;54193;53.746;10.058;2023-12-20T15:39:44;12.17;;;2.60;;
67278;SDS011;54193;53.746;10.058;2023-12-20T15:42:29;11.20;;;2.47;;
67278;SDS011;54193;53.746;10.058;2023-12-20T15:45:17;10.93;;;2.13;;
67278;SDS011;54193;53.746;10.058;2023-12-20T15:48:03;11.55;;;1.73;;
67278;SDS011;54193;53.746;10.058;2023-12-20T15:50:49;14.67;;;2.43;;
67278;SDS011;54193;53.746;10.058;2023-12-20T15:53:35;8.80;;;1.70;;
67278;SDS011;54193;53.746;10.058;2023-12-20T15:56:21;16.00;;;2.55;;
67278;SDS011;54193;53.746;10.058;2023-12-20T15:59:07;11.83;;;1.77;;
67278;SDS011;54193;53.746;10.058;2023-12-20T16:01:54;9.93;;;1.83;;
67278;SDS011;54193;53.746;10.058;2023-12-20T16:04:40;8.80;;;1.63;;
67278;SDS011;54193;53.746;10.058;2023-12-20T16:07:27;10.43;;;2.30;;
67278;SDS011;54193;53.746;10.058;2023-12-20T16:10:12;12.90;;;1.90;;
67278;SDS011;54193;53.746;10.058;2023-12-20T16:12:58;12.05;;;1.92;;
67278;SDS011;54193;53.746;10.058;2023-12-20T16:15:44;14.00;;;2.35;;
67278;SDS011;54193;53.746;10.058;2023-12-20T16:18:30;12.23;;;2.13;;
67278;SDS011;54193;53.746;10.058;2023-12-20T16:21:16;20.95;;;2.13;;
67278;SDS011;54193;53.746;10.058;2023-12-20T16:24:02;11.82;;;1.95;;
67278;SDS011;54193;53.746;10.058;2023-12-20T16:26:49;7.33;;;1.53;;